createdAt,value
2018-07-22T00:00:35.220Z,21.21
2018-07-22T00:03:02.712Z,21.20
2018-07-22T00:05:30.398Z,21.21
2018-07-22T00:07:57.757Z,21.21
2018-07-22T00:10:27.352Z,21.17
2018-07-22T00:12:55.061Z,21.12
2018-07-22T00:15:22.993Z,21.03
2018-07-22T00:17:50.455Z,20.92
2018-07-22T00:20:18.568Z,20.88
2018-07-22T00:22:46.293Z,20.86
2018-07-22T00:25:14.391Z,20.83
2018-07-22T00:27:42.107Z,20.76
2018-07-22T00:30:10.436Z,20.70
2018-07-22T00:32:39.256Z,20.75
2018-07-22T00:35:07.441Z,20.74
2018-07-22T00:37:34.991Z,20.75
2018-07-22T00:40:02.957Z,20.75
2018-07-22T00:42:30.356Z,20.72
2018-07-22T00:44:58.091Z,20.60
2018-07-22T00:47:25.457Z,20.56
2018-07-22T00:49:52.871Z,20.46
2018-07-22T00:52:20.198Z,20.38
2018-07-22T00:54:47.823Z,20.34
2018-07-22T00:57:15.421Z,20.35
2018-07-22T00:59:43.003Z,20.36
2018-07-22T01:02:10.329Z,20.31
2018-07-22T01:04:37.812Z,20.22
2018-07-22T01:07:09.681Z,20.15
2018-07-22T01:09:37.320Z,20.12
2018-07-22T01:12:04.865Z,20.16
2018-07-22T01:14:32.493Z,20.14
2018-07-22T01:19:41.083Z,20.05
2018-07-22T01:22:08.557Z,19.96
2018-07-22T01:24:36.168Z,19.89
2018-07-22T01:27:03.684Z,19.84
2018-07-22T01:29:31.696Z,19.86
2018-07-22T01:31:59.345Z,19.83
2018-07-22T01:34:26.907Z,19.85
2018-07-22T01:36:54.584Z,19.92
2018-07-22T01:39:22.028Z,19.89
2018-07-22T01:41:49.385Z,19.82
2018-07-22T01:44:16.957Z,19.84
2018-07-22T01:46:44.389Z,19.85
2018-07-22T01:49:12.065Z,19.84
2018-07-22T01:51:39.653Z,19.79
2018-07-22T01:54:07.233Z,19.77
2018-07-22T01:56:34.841Z,19.75
2018-07-22T01:59:02.362Z,19.63
2018-07-22T02:01:29.741Z,19.61
2018-07-22T02:03:57.893Z,19.59
2018-07-22T02:06:25.316Z,19.60
2018-07-22T02:08:52.978Z,19.65
2018-07-22T02:11:20.458Z,19.68
2018-07-22T02:13:47.841Z,19.68
2018-07-22T02:16:17.494Z,19.61
2018-07-22T02:18:51.823Z,19.65
2018-07-22T02:21:19.394Z,19.59
2018-07-22T02:23:47.067Z,19.51
2018-07-22T02:26:14.625Z,19.49
2018-07-22T02:28:41.957Z,19.42
2018-07-22T02:31:10.866Z,19.33
2018-07-22T02:33:38.595Z,19.26
2018-07-22T02:36:06.731Z,19.19
2018-07-22T02:38:34.328Z,19.13
2018-07-22T02:41:01.685Z,19.11
2018-07-22T02:43:29.582Z,19.04
2018-07-22T02:45:57.103Z,18.98
2018-07-22T02:48:24.813Z,18.93
2018-07-22T02:50:52.363Z,18.97
2018-07-22T02:53:20.040Z,18.94
2018-07-22T02:55:47.444Z,18.96
2018-07-22T02:58:15.151Z,18.96
2018-07-22T03:00:42.560Z,19.02
2018-07-22T03:03:09.996Z,19.02
2018-07-22T03:05:37.698Z,19.01
2018-07-22T03:08:05.317Z,19.03
2018-07-22T03:10:32.966Z,19.01
2018-07-22T03:13:01.397Z,18.99
2018-07-22T03:15:29.320Z,18.90
2018-07-22T03:17:56.875Z,18.87
2018-07-22T03:20:25.150Z,18.89
2018-07-22T03:22:52.840Z,18.86
2018-07-22T03:25:20.650Z,18.80
2018-07-22T03:27:48.558Z,18.74
2018-07-22T03:30:16.104Z,18.78
2018-07-22T03:32:43.735Z,18.76
2018-07-22T03:35:11.930Z,18.74
2018-07-22T03:37:39.721Z,18.73
2018-07-22T03:40:07.300Z,18.69
2018-07-22T03:42:35.380Z,18.64
2018-07-22T03:45:03.424Z,18.59
2018-07-22T03:47:31.817Z,18.55
2018-07-22T03:49:59.676Z,18.51
2018-07-22T03:52:27.945Z,18.51
2018-07-22T03:54:55.861Z,18.50
2018-07-22T03:57:23.476Z,18.45
2018-07-22T03:59:52.655Z,18.41
2018-07-22T04:02:20.709Z,18.36
2018-07-22T04:04:48.718Z,18.33
2018-07-22T04:07:21.871Z,18.33
2018-07-22T04:09:56.751Z,18.32
2018-07-22T04:12:24.900Z,18.30
2018-07-22T04:14:53.315Z,18.26
2018-07-22T04:17:21.579Z,18.27
2018-07-22T04:19:49.683Z,18.26
2018-07-22T04:22:17.927Z,18.29
2018-07-22T04:24:46.425Z,18.30
2018-07-22T04:27:15.197Z,18.25
2018-07-22T04:29:43.334Z,18.21
2018-07-22T04:32:16.555Z,18.20
2018-07-22T04:34:45.104Z,18.13
2018-07-22T04:37:13.788Z,18.07
2018-07-22T04:39:42.423Z,18.06
2018-07-22T04:42:11.158Z,18.06
2018-07-22T04:44:39.578Z,18.14
2018-07-22T04:47:07.687Z,18.17
2018-07-22T04:49:35.917Z,18.19
2018-07-22T04:52:04.718Z,18.20
2018-07-22T04:54:34.158Z,18.22
2018-07-22T04:57:02.093Z,18.24
2018-07-22T04:59:30.519Z,18.28
2018-07-22T05:01:58.586Z,18.29
2018-07-22T05:04:27.057Z,18.28
2018-07-22T05:06:55.383Z,18.27
2018-07-22T05:09:23.146Z,18.31
2018-07-22T05:11:51.293Z,18.35
2018-07-22T05:14:20.298Z,18.30
2018-07-22T05:34:18.847Z,18.60
2018-07-22T05:36:48.162Z,18.68
2018-07-22T05:39:19.602Z,18.67
2018-07-22T05:41:48.527Z,18.77
2018-07-22T05:44:16.949Z,18.85
2018-07-22T05:46:45.323Z,18.86
2018-07-22T05:49:14.990Z,18.81
2018-07-22T05:51:43.380Z,18.81
2018-07-22T05:54:13.029Z,18.82
2018-07-22T05:56:41.620Z,18.83
2018-07-22T05:59:09.740Z,18.84
2018-07-22T06:01:38.396Z,18.85
2018-07-22T06:04:06.237Z,18.89
2018-07-22T06:06:35.121Z,18.98
2018-07-22T06:09:04.092Z,19.04
2018-07-22T06:11:31.850Z,19.10
2018-07-22T06:13:59.948Z,19.19
2018-07-22T06:16:28.071Z,19.30
2018-07-22T06:18:56.354Z,19.39
2018-07-22T06:21:25.505Z,19.48
2018-07-22T06:23:53.733Z,19.57
2018-07-22T06:26:21.792Z,19.63
2018-07-22T06:28:49.918Z,19.69
2018-07-22T06:31:19.517Z,19.77
2018-07-22T06:33:47.108Z,19.81
2018-07-22T06:36:15.469Z,19.89
2018-07-22T06:38:43.486Z,20.00
2018-07-22T06:41:11.387Z,20.09
2018-07-22T06:43:39.374Z,20.14
2018-07-22T06:46:08.262Z,20.23
2018-07-22T06:48:36.171Z,20.30
2018-07-22T06:51:03.750Z,20.37
2018-07-22T06:53:32.054Z,20.42
2018-07-22T06:56:00.450Z,20.45
2018-07-22T06:58:28.155Z,20.57
2018-07-22T07:00:56.765Z,20.68
2018-07-22T07:03:24.520Z,20.75
2018-07-22T07:05:52.316Z,20.91
2018-07-22T07:08:19.924Z,21.02
2018-07-22T07:10:47.761Z,21.05
2018-07-22T07:13:15.891Z,21.11
2018-07-22T07:15:43.721Z,21.13
2018-07-22T07:18:11.384Z,21.19
2018-07-22T07:20:39.262Z,21.22
2018-07-22T07:23:07.101Z,21.28
2018-07-22T07:25:35.419Z,21.36
2018-07-22T07:28:03.383Z,21.31
2018-07-22T07:30:31.190Z,21.38
2018-07-22T07:32:59.485Z,21.46
2018-07-22T07:35:28.398Z,21.63
2018-07-22T07:37:56.129Z,21.73
2018-07-22T07:40:24.827Z,21.76
2018-07-22T07:42:52.616Z,21.87
2018-07-22T07:45:20.272Z,21.95
2018-07-22T07:47:48.310Z,21.99
2018-07-22T07:50:16.585Z,22.02
2018-07-22T07:52:44.432Z,22.03
2018-07-22T07:55:12.484Z,22.09
2018-07-22T07:57:40.498Z,22.10
2018-07-22T08:00:08.708Z,22.16
2018-07-22T08:02:36.666Z,22.29
2018-07-22T08:05:04.843Z,22.36
2018-07-22T08:07:33.015Z,22.44
2018-07-22T08:10:01.541Z,22.50
2018-07-22T08:12:30.157Z,22.59
2018-07-22T08:14:58.203Z,22.69
2018-07-22T08:17:26.103Z,22.74
2018-07-22T08:19:54.185Z,22.79
2018-07-22T08:22:22.166Z,22.83
2018-07-22T08:24:50.407Z,22.90
2018-07-22T08:27:18.572Z,22.99
2018-07-22T08:29:46.293Z,23.05
2018-07-22T08:32:14.732Z,23.07
2018-07-22T08:34:43.204Z,23.13
2018-07-22T08:37:11.242Z,23.15
2018-07-22T08:39:39.162Z,23.24
2018-07-22T08:42:07.698Z,23.29
2018-07-22T08:44:36.410Z,23.25
2018-07-22T08:47:05.444Z,23.36
2018-07-22T08:49:33.548Z,23.48
2018-07-22T08:52:01.488Z,23.57
2018-07-22T08:54:29.556Z,23.65
2018-07-22T08:56:57.368Z,23.67
2018-07-22T08:59:26.185Z,23.69
2018-07-22T09:01:54.262Z,23.68
2018-07-22T09:04:22.538Z,23.73
2018-07-22T09:06:50.941Z,23.78
2018-07-22T09:09:19.071Z,23.91
2018-07-22T09:11:47.149Z,24.00
2018-07-22T09:14:15.733Z,24.03
2018-07-22T09:36:52.790Z,24.88
2018-07-22T09:39:21.896Z,24.87
2018-07-22T09:41:51.410Z,24.96
2018-07-22T09:44:20.102Z,24.99
2018-07-22T09:46:48.659Z,25.09
2018-07-22T09:49:16.867Z,25.19
2018-07-22T09:51:45.310Z,25.33
2018-07-22T09:54:13.399Z,25.49
2018-07-22T09:56:41.715Z,25.62
2018-07-22T09:59:11.020Z,25.76
2018-07-22T10:01:39.388Z,25.94
2018-07-22T10:04:08.853Z,26.10
2018-07-22T10:06:37.735Z,26.30
2018-07-22T10:09:08.309Z,26.38
2018-07-22T10:11:37.270Z,26.47
2018-07-22T10:14:05.995Z,26.57
2018-07-22T10:16:34.570Z,26.54
2018-07-22T10:19:02.888Z,26.56
2018-07-22T10:21:31.745Z,26.60
2018-07-22T10:24:00.565Z,26.75
2018-07-22T10:26:32.061Z,26.89
2018-07-22T10:29:00.933Z,26.95
2018-07-22T10:31:29.105Z,27.13
2018-07-22T10:33:57.729Z,27.10
2018-07-22T10:36:26.541Z,26.98
2018-07-22T10:39:00.325Z,26.99
2018-07-22T10:41:30.087Z,27.16
2018-07-22T10:43:59.014Z,27.29
2018-07-22T10:46:30.773Z,27.52
2018-07-22T10:48:59.940Z,27.70
2018-07-22T10:51:31.513Z,27.78
2018-07-22T10:53:59.915Z,27.94
2018-07-22T10:56:28.296Z,28.14
2018-07-22T10:58:56.465Z,28.33
2018-07-22T11:01:24.891Z,28.51
2018-07-22T11:03:59.454Z,28.66
2018-07-22T11:06:27.926Z,28.83
2018-07-22T11:08:57.049Z,28.76
2018-07-22T11:11:25.680Z,28.79
2018-07-22T11:13:55.204Z,29.02
2018-07-22T11:16:23.861Z,29.30
2018-07-22T11:18:53.026Z,29.53
2018-07-22T11:21:21.819Z,29.49
2018-07-22T11:23:52.866Z,29.64
2018-07-22T11:26:21.764Z,29.76
2018-07-22T11:28:55.460Z,30.02
2018-07-22T11:51:31.882Z,28.74
2018-07-22T11:54:00.595Z,28.54
2018-07-22T11:56:29.464Z,28.41
2018-07-22T11:58:57.632Z,28.69
2018-07-22T12:01:26.487Z,28.96
2018-07-22T12:03:54.922Z,28.91
2018-07-22T12:06:23.114Z,28.86
2018-07-22T12:08:51.603Z,28.63
2018-07-22T12:11:20.122Z,28.53
2018-07-22T12:13:49.133Z,28.45
2018-07-22T12:16:17.882Z,28.97
2018-07-22T12:18:51.778Z,29.44
2018-07-22T12:21:20.141Z,29.99
2018-07-22T12:23:48.259Z,29.92
2018-07-22T12:26:16.602Z,29.87
2018-07-22T12:28:44.854Z,30.02
2018-07-22T12:31:13.350Z,29.63
2018-07-22T12:33:41.515Z,29.39
2018-07-22T12:36:09.710Z,29.59
2018-07-22T12:38:37.636Z,30.11
2018-07-22T12:41:05.816Z,30.80
2018-07-22T12:43:40.584Z,31.31
2018-07-22T12:46:08.532Z,31.68
2018-07-22T12:48:36.863Z,32.06
2018-07-22T12:51:05.205Z,32.55
2018-07-22T12:53:32.848Z,32.93
2018-07-22T12:56:00.708Z,33.26
2018-07-22T12:58:28.624Z,33.70
2018-07-22T13:01:01.373Z,33.97
2018-07-22T13:03:28.850Z,34.39
2018-07-22T13:05:56.587Z,33.88
2018-07-22T13:08:24.367Z,34.31
2018-07-22T13:10:51.988Z,34.61
2018-07-22T13:13:19.827Z,34.33
2018-07-22T13:15:47.583Z,33.87
2018-07-22T13:18:15.949Z,33.36
2018-07-22T13:20:43.879Z,33.56
2018-07-22T13:23:11.978Z,33.49
2018-07-22T13:25:39.964Z,33.58
2018-07-22T13:28:08.090Z,33.44
2018-07-22T13:30:35.892Z,33.70
2018-07-22T13:33:04.098Z,34.02
2018-07-22T13:35:31.993Z,33.63
2018-07-22T13:37:59.879Z,32.68
2018-07-22T13:40:27.956Z,32.54
2018-07-22T13:42:55.897Z,32.43
2018-07-22T13:45:23.927Z,32.07
2018-07-22T13:47:51.947Z,31.53
2018-07-22T13:50:19.635Z,31.15
2018-07-22T13:52:47.298Z,30.84
2018-07-22T13:55:14.987Z,30.55
2018-07-22T13:57:42.682Z,30.20
2018-07-22T14:00:10.688Z,29.93
2018-07-22T14:02:38.664Z,29.56
2018-07-22T14:05:06.730Z,29.38
2018-07-22T14:07:34.563Z,29.13
2018-07-22T14:10:02.557Z,28.93
2018-07-22T14:12:30.611Z,28.72
2018-07-22T14:14:58.586Z,28.49
2018-07-22T14:17:26.922Z,28.43
2018-07-22T14:19:54.450Z,28.49
2018-07-22T14:22:22.644Z,28.45
2018-07-22T14:24:50.929Z,28.37
2018-07-22T14:27:18.793Z,28.34
2018-07-22T14:29:46.618Z,28.31
2018-07-22T14:32:14.751Z,28.31
2018-07-22T14:34:42.622Z,28.36
2018-07-22T14:37:10.419Z,28.40
2018-07-22T14:39:38.261Z,28.51
2018-07-22T14:42:06.803Z,28.64
2018-07-22T14:44:34.993Z,28.81
2018-07-22T14:47:03.008Z,28.79
2018-07-22T14:49:31.140Z,28.70
2018-07-22T14:51:59.074Z,28.68
2018-07-22T14:54:27.333Z,28.74
2018-07-22T14:56:55.105Z,28.75
2018-07-22T14:59:22.928Z,28.76
2018-07-22T15:01:50.744Z,28.75
2018-07-22T15:04:18.330Z,28.83
2018-07-22T15:06:46.903Z,29.34
2018-07-22T15:09:15.389Z,29.84
2018-07-22T15:11:43.877Z,30.42
2018-07-22T15:14:11.568Z,31.78
2018-07-22T15:16:39.305Z,32.57
2018-07-22T15:19:07.077Z,32.35
2018-07-22T15:21:35.209Z,31.58
2018-07-22T15:24:03.405Z,30.78
2018-07-22T15:26:31.206Z,30.27
2018-07-22T15:28:59.236Z,29.83
2018-07-22T15:31:31.889Z,29.62
2018-07-22T15:34:00.232Z,29.65
2018-07-22T15:36:31.443Z,29.78
2018-07-22T15:38:59.981Z,30.14
2018-07-22T15:41:28.378Z,30.39
2018-07-22T15:43:56.591Z,30.57
2018-07-22T15:46:24.465Z,30.65
2018-07-22T15:48:55.608Z,30.46
2018-07-22T15:51:29.083Z,30.38
2018-07-22T15:53:56.957Z,30.23
2018-07-22T15:56:25.553Z,29.94
2018-07-22T15:58:53.446Z,29.91
2018-07-22T16:01:21.390Z,29.89
2018-07-22T16:03:49.207Z,29.89
2018-07-22T16:06:17.179Z,29.70
2018-07-22T16:08:44.883Z,29.43
2018-07-22T16:11:12.586Z,29.33
2018-07-22T16:13:40.419Z,29.22
2018-07-22T16:16:08.693Z,29.14
2018-07-22T16:18:36.433Z,29.10
2018-07-22T16:21:04.315Z,29.00
2018-07-22T16:23:32.115Z,29.19
2018-07-22T16:25:59.844Z,29.74
2018-07-22T16:28:28.205Z,30.91
2018-07-22T16:30:56.643Z,32.50
2018-07-22T16:33:25.266Z,33.75
2018-07-22T16:35:53.220Z,34.85
2018-07-22T16:38:21.900Z,35.66
2018-07-22T16:40:49.561Z,35.96
2018-07-22T16:43:17.720Z,36.18
2018-07-22T16:45:46.551Z,36.40
2018-07-22T16:48:14.523Z,36.53
2018-07-22T16:50:42.320Z,36.24
2018-07-22T16:53:10.092Z,35.31
2018-07-22T16:55:37.925Z,34.39
2018-07-22T16:58:05.872Z,33.20
2018-07-22T17:00:34.369Z,32.40
2018-07-22T17:03:02.590Z,31.69
2018-07-22T17:05:35.828Z,31.09
2018-07-22T17:08:04.194Z,30.92
2018-07-22T17:10:32.544Z,30.72
2018-07-22T17:13:02.668Z,30.56
2018-07-22T17:15:30.526Z,30.31
2018-07-22T17:17:58.590Z,30.17
2018-07-22T17:20:26.363Z,30.09
2018-07-22T17:22:54.353Z,29.97
2018-07-22T17:25:22.113Z,29.83
2018-07-22T17:27:49.983Z,29.91
2018-07-22T17:30:17.804Z,29.69
2018-07-22T17:32:45.780Z,29.47
2018-07-22T17:35:13.769Z,29.26
2018-07-22T17:37:48.442Z,29.05
2018-07-22T17:40:16.334Z,28.94
2018-07-22T17:42:44.293Z,28.87
2018-07-22T17:45:12.676Z,28.73
2018-07-22T17:47:44.117Z,28.60
2018-07-22T17:50:12.355Z,28.55
2018-07-22T17:52:40.632Z,28.48
2018-07-22T17:55:08.665Z,28.32
2018-07-22T17:57:37.591Z,28.22
2018-07-22T18:00:06.335Z,28.14
2018-07-22T18:02:34.631Z,28.14
2018-07-22T18:05:02.849Z,28.11
2018-07-22T18:07:31.649Z,28.03
2018-07-22T18:10:00.573Z,27.95
2018-07-22T18:12:28.158Z,27.87
2018-07-22T18:14:55.950Z,27.77
2018-07-22T18:17:23.879Z,27.65
2018-07-22T18:19:52.024Z,27.59
2018-07-22T18:22:19.949Z,27.56
2018-07-22T18:24:47.853Z,27.53
2018-07-22T18:27:15.965Z,27.51
2018-07-22T18:29:49.766Z,27.52
2018-07-22T18:32:21.160Z,27.50
2018-07-22T18:34:49.320Z,27.46
2018-07-22T18:37:17.249Z,27.37
2018-07-22T18:39:45.038Z,27.32
2018-07-22T18:42:13.533Z,27.26
2018-07-22T18:44:42.030Z,27.13
2018-07-22T18:47:10.381Z,27.02
2018-07-22T18:49:38.555Z,26.89
2018-07-22T18:52:06.925Z,26.76
2018-07-22T18:54:35.348Z,26.62
2018-07-22T18:57:06.838Z,26.50
2018-07-22T18:59:35.281Z,26.40
2018-07-22T19:02:04.013Z,26.32
2018-07-22T19:04:32.902Z,26.28
2018-07-22T19:07:05.717Z,26.23
2018-07-22T19:09:34.215Z,26.16
2018-07-22T19:12:02.587Z,26.13
2018-07-22T19:15:07.129Z,26.07
2018-07-22T19:17:35.295Z,25.97
2018-07-22T19:20:03.746Z,25.89
2018-07-22T19:22:32.316Z,25.79
2018-07-22T19:25:00.873Z,25.70
2018-07-22T19:27:29.637Z,25.60
2018-07-22T19:29:58.028Z,25.58
2018-07-22T19:32:26.409Z,25.48
2018-07-22T19:34:55.268Z,25.42
2018-07-22T19:37:23.784Z,25.31
2018-07-22T19:39:52.952Z,25.22
2018-07-22T19:42:21.365Z,25.19
2018-07-22T19:44:50.285Z,25.15
2018-07-22T19:47:18.416Z,25.07
2018-07-22T19:49:46.386Z,25.03
2018-07-22T19:52:14.839Z,24.95
2018-07-22T19:54:43.055Z,24.86
2018-07-22T19:57:11.567Z,24.80
2018-07-22T19:59:40.745Z,24.72
2018-07-22T20:02:09.410Z,24.67
2018-07-22T20:04:40.428Z,24.62
2018-07-22T20:07:08.424Z,24.55
2018-07-22T20:09:36.578Z,24.48
2018-07-22T20:12:04.574Z,24.43
2018-07-22T20:14:32.637Z,24.37
2018-07-22T20:17:00.509Z,24.31
2018-07-22T20:19:28.375Z,24.27
2018-07-22T20:21:56.424Z,24.22
2018-07-22T20:24:24.561Z,24.16
2018-07-22T20:26:52.495Z,24.09
2018-07-22T20:29:20.168Z,24.07
2018-07-22T20:31:47.976Z,24.05
2018-07-22T20:34:15.793Z,23.99
2018-07-22T20:36:43.227Z,24.00
2018-07-22T20:39:11.451Z,23.94
2018-07-22T20:41:39.977Z,23.88
2018-07-22T20:44:07.755Z,23.85
2018-07-22T20:46:35.931Z,23.83
2018-07-22T20:49:03.717Z,23.82
2018-07-22T20:51:31.065Z,23.81
2018-07-22T20:53:58.375Z,23.77
2018-07-22T20:56:29.160Z,23.74
2018-07-22T20:58:56.726Z,23.71
2018-07-22T21:01:24.280Z,23.71
2018-07-22T21:03:52.826Z,23.68
2018-07-22T21:06:20.478Z,23.65
2018-07-22T21:08:47.893Z,23.62
2018-07-22T21:11:15.732Z,23.57
2018-07-22T21:13:44.365Z,23.56
2018-07-22T21:16:11.906Z,23.52
2018-07-22T21:18:39.485Z,23.47
2018-07-22T21:21:07.408Z,23.42
2018-07-22T21:23:35.273Z,23.40
2018-07-22T21:26:02.872Z,23.32
2018-07-22T21:28:30.236Z,23.29
2018-07-22T21:30:57.843Z,23.24
2018-07-22T21:33:25.456Z,23.21
2018-07-22T21:35:53.356Z,23.20
2018-07-22T21:38:20.679Z,23.17
2018-07-22T21:40:48.081Z,23.13
2018-07-22T21:43:15.480Z,23.12
2018-07-22T21:45:43.508Z,23.06
2018-07-22T22:01:11.741Z,22.85
2018-07-22T22:03:39.384Z,22.83
2018-07-22T22:06:06.968Z,22.80
2018-07-22T22:08:34.506Z,22.78
2018-07-22T22:11:02.028Z,22.74
2018-07-22T22:13:29.581Z,22.71
2018-07-22T22:15:57.253Z,22.68
2018-07-22T22:18:24.627Z,22.64
2018-07-22T22:20:52.345Z,22.62
2018-07-22T22:23:19.884Z,22.58
2018-07-22T22:25:47.384Z,22.57
2018-07-22T22:28:15.487Z,22.53
2018-07-22T22:33:16.947Z,22.37
2018-07-22T22:35:44.941Z,22.31
2018-07-22T22:38:19.229Z,22.25
2018-07-22T22:40:47.237Z,22.22
2018-07-22T22:45:41.576Z,22.05
2018-07-22T22:48:08.903Z,21.98
2018-07-22T22:50:36.421Z,21.95
2018-07-22T22:53:04.113Z,21.91
2018-07-22T22:55:31.623Z,21.84
2018-07-22T22:58:10.266Z,21.82
2018-07-22T23:00:37.819Z,21.79
2018-07-22T23:03:05.296Z,21.74
2018-07-22T23:05:32.740Z,21.71
2018-07-22T23:08:06.932Z,21.67
2018-07-22T23:10:34.447Z,21.60
2018-07-22T23:13:01.991Z,21.60
2018-07-22T23:15:36.226Z,21.54
2018-07-22T23:18:04.091Z,21.49
2018-07-22T23:20:31.952Z,21.45
2018-07-22T23:22:59.335Z,21.43
2018-07-22T23:25:26.701Z,21.41
2018-07-22T23:27:54.222Z,21.35
2018-07-22T23:30:21.641Z,21.33
2018-07-22T23:32:49.226Z,21.37
2018-07-22T23:35:16.809Z,21.37
2018-07-22T23:37:44.136Z,21.37
2018-07-22T23:40:11.516Z,21.36
2018-07-22T23:42:39.127Z,21.33
2018-07-22T23:45:06.517Z,21.28
2018-07-22T23:47:40.970Z,21.23
2018-07-22T23:50:08.422Z,21.16
2018-07-22T23:52:35.939Z,21.10
2018-07-22T23:55:03.699Z,21.09
2018-07-22T23:57:31.159Z,21.07
2018-07-22T23:59:58.855Z,21.02
